sensor_id;sensor_type;location;lat;lon;timestamp;P1;durP1;ratioP1;P2;durP2;ratioP2
48777;SDS011;34578;0.000;0.000;2023-03-01T00:04:34;4.20;;;3.72;;
48777;SDS011;34578;0.000;0.000;2023-03-01T00:09:36;6.22;;;4.00;;
48777;SDS011;34578;0.000;0.000;2023-03-01T00:14:37;4.93;;;3.63;;
48777;SDS011;34578;0.000;0.000;2023-03-01T00:19:37;4.13;;;3.43;;
48777;SDS011;34578;0.000;0.000;2023-03-01T00:24:37;5.30;;;4.30;;
48777;SDS011;34578;0.000;0.000;2023-03-01T00:29:38;6.57;;;5.03;;
48777;SDS011;34578;0.000;0.000;2023-03-01T00:34:38;3.80;;;3.40;;
48777;SDS011;34578;0.000;0.000;2023-03-01T00:39:38;7.13;;;4.13;;
48777;SDS011;34578;0.000;0.000;2023-03-01T00:44:39;5.50;;;3.30;;
48777;SDS011;34578;0.000;0.000;2023-03-01T00:49:39;4.43;;;4.00;;
48777;SDS011;34578;0.000;0.000;2023-03-01T00:54:40;5.10;;;3.97;;
48777;SDS011;34578;0.000;0.000;2023-03-01T00:59:40;5.30;;;4.23;;
48777;SDS011;34578;0.000;0.000;2023-03-01T01:04:40;5.13;;;3.73;;
48777;SDS011;34578;0.000;0.000;2023-03-01T01:09:41;5.63;;;3.88;;
48777;SDS011;34578;0.000;0.000;2023-03-01T01:14:41;3.38;;;3.03;;
48777;SDS011;34578;0.000;0.000;2023-03-01T01:19:43;4.60;;;3.50;;
48777;SDS011;34578;0.000;0.000;2023-03-01T01:24:44;6.40;;;3.75;;
48777;SDS011;34578;0.000;0.000;2023-03-01T01:29:45;5.00;;;4.07;;
48777;SDS011;34578;0.000;0.000;2023-03-01T01:34:45;5.97;;;3.33;;
48777;SDS011;34578;0.000;0.000;2023-03-01T01:39:46;4.70;;;3.40;;
48777;SDS011;34578;0.000;0.000;2023-03-01T01:44:47;2.90;;;2.65;;
48777;SDS011;34578;0.000;0.000;2023-03-01T01:49:53;4.03;;;3.55;;
48777;SDS011;34578;0.000;0.000;2023-03-01T01:55:05;4.47;;;3.95;;
48777;SDS011;34578;0.000;0.000;2023-03-01T02:00:10;5.22;;;3.88;;
48777;SDS011;34578;0.000;0.000;2023-03-01T02:05:19;4.05;;;3.60;;
48777;SDS011;34578;0.000;0.000;2023-03-01T02:10:29;4.65;;;3.50;;
48777;SDS011;34578;0.000;0.000;2023-03-01T02:15:34;4.57;;;4.18;;
48777;SDS011;34578;0.000;0.000;2023-03-01T02:31:09;5.32;;;3.83;;
48777;SDS011;34578;0.000;0.000;2023-03-01T02:36:34;6.68;;;4.10;;
48777;SDS011;34578;0.000;0.000;2023-03-01T02:41:37;4.85;;;3.90;;
48777;SDS011;34578;0.000;0.000;2023-03-01T02:46:42;4.35;;;3.67;;
48777;SDS011;34578;0.000;0.000;2023-03-01T02:51:47;3.97;;;3.38;;
48777;SDS011;34578;0.000;0.000;2023-03-01T02:56:58;4.20;;;3.05;;
48777;SDS011;34578;0.000;0.000;2023-03-01T03:02:00;4.80;;;3.55;;
48777;SDS011;34578;0.000;0.000;2023-03-01T03:07:01;3.78;;;3.22;;
48777;SDS011;34578;0.000;0.000;2023-03-01T03:12:01;4.63;;;3.80;;
48777;SDS011;34578;0.000;0.000;2023-03-01T03:17:02;3.95;;;3.55;;
48777;SDS011;34578;0.000;0.000;2023-03-01T03:22:06;4.03;;;3.30;;
48777;SDS011;34578;0.000;0.000;2023-03-01T03:27:08;4.82;;;3.50;;
48777;SDS011;34578;0.000;0.000;2023-03-01T03:32:09;4.10;;;3.73;;
48777;SDS011;34578;0.000;0.000;2023-03-01T03:37:09;3.93;;;3.40;;
48777;SDS011;34578;0.000;0.000;2023-03-01T03:42:29;4.07;;;3.60;;
48777;SDS011;34578;0.000;0.000;2023-03-01T03:47:30;3.97;;;3.47;;
48777;SDS011;34578;0.000;0.000;2023-03-01T03:52:30;5.43;;;4.00;;
48777;SDS011;34578;0.000;0.000;2023-03-01T03:57:31;4.50;;;4.10;;
48777;SDS011;34578;0.000;0.000;2023-03-01T04:02:31;5.20;;;4.23;;
48777;SDS011;34578;0.000;0.000;2023-03-01T04:07:31;5.17;;;4.23;;
48777;SDS011;34578;0.000;0.000;2023-03-01T04:12:32;7.37;;;5.57;;
48777;SDS011;34578;0.000;0.000;2023-03-01T04:17:34;7.50;;;4.90;;
48777;SDS011;34578;0.000;0.000;2023-03-01T04:22:35;8.07;;;4.20;;
48777;SDS011;34578;0.000;0.000;2023-03-01T04:27:35;9.83;;;4.73;;
48777;SDS011;34578;0.000;0.000;2023-03-01T04:32:36;6.05;;;3.80;;
48777;SDS011;34578;0.000;0.000;2023-03-01T04:37:36;4.73;;;3.33;;
48777;SDS011;34578;0.000;0.000;2023-03-01T04:42:37;5.43;;;3.57;;
48777;SDS011;34578;0.000;0.000;2023-03-01T04:47:37;3.67;;;3.30;;
48777;SDS011;34578;0.000;0.000;2023-03-01T04:52:38;4.60;;;4.05;;
48777;SDS011;34578;0.000;0.000;2023-03-01T04:57:38;6.23;;;3.67;;
48777;SDS011;34578;0.000;0.000;2023-03-01T05:02:39;4.72;;;4.07;;
48777;SDS011;34578;0.000;0.000;2023-03-01T05:07:39;4.67;;;3.67;;
48777;SDS011;34578;0.000;0.000;2023-03-01T05:12:40;4.17;;;3.53;;
48777;SDS011;34578;0.000;0.000;2023-03-01T05:17:40;4.50;;;3.67;;
48777;SDS011;34578;0.000;0.000;2023-03-01T05:22:41;5.93;;;4.17;;
48777;SDS011;34578;0.000;0.000;2023-03-01T05:27:41;4.23;;;3.70;;
48777;SDS011;34578;0.000;0.000;2023-03-01T05:32:42;5.47;;;3.83;;
48777;SDS011;34578;0.000;0.000;2023-03-01T05:37:45;3.70;;;3.40;;
48777;SDS011;34578;0.000;0.000;2023-03-01T05:42:48;5.38;;;3.90;;
48777;SDS011;34578;0.000;0.000;2023-03-01T05:47:54;5.63;;;3.35;;
48777;SDS011;34578;0.000;0.000;2023-03-01T05:58:00;6.55;;;4.30;;
48777;SDS011;34578;0.000;0.000;2023-03-01T06:03:02;7.28;;;5.28;;
48777;SDS011;34578;0.000;0.000;2023-03-01T06:08:03;6.47;;;4.93;;
48777;SDS011;34578;0.000;0.000;2023-03-01T06:13:04;6.82;;;4.60;;
48777;SDS011;34578;0.000;0.000;2023-03-01T06:18:04;6.30;;;5.32;;
48777;SDS011;34578;0.000;0.000;2023-03-01T06:23:05;6.33;;;5.33;;
48777;SDS011;34578;0.000;0.000;2023-03-01T06:28:05;39.53;;;11.20;;
48777;SDS011;34578;0.000;0.000;2023-03-01T06:33:05;13.20;;;8.33;;
48777;SDS011;34578;0.000;0.000;2023-03-01T06:38:06;12.13;;;7.97;;
48777;SDS011;34578;0.000;0.000;2023-03-01T06:43:07;9.30;;;6.15;;
48777;SDS011;34578;0.000;0.000;2023-03-01T06:48:07;12.93;;;7.00;;
48777;SDS011;34578;0.000;0.000;2023-03-01T06:53:08;8.33;;;5.93;;
48777;SDS011;34578;0.000;0.000;2023-03-01T06:58:08;7.37;;;5.93;;
48777;SDS011;34578;0.000;0.000;2023-03-01T07:03:08;10.35;;;5.75;;
48777;SDS011;34578;0.000;0.000;2023-03-01T07:08:09;9.17;;;5.60;;
48777;SDS011;34578;0.000;0.000;2023-03-01T07:13:09;5.07;;;4.53;;
48777;SDS011;34578;0.000;0.000;2023-03-01T07:18:09;6.00;;;5.23;;
48777;SDS011;34578;0.000;0.000;2023-03-01T07:23:10;8.03;;;4.97;;
48777;SDS011;34578;0.000;0.000;2023-03-01T07:28:10;5.93;;;4.37;;
48777;SDS011;34578;0.000;0.000;2023-03-01T07:33:10;4.87;;;4.30;;
48777;SDS011;34578;0.000;0.000;2023-03-01T07:38:11;4.80;;;4.30;;
48777;SDS011;34578;0.000;0.000;2023-03-01T07:43:11;6.43;;;4.57;;
48777;SDS011;34578;0.000;0.000;2023-03-01T07:48:12;6.23;;;4.80;;
48777;SDS011;34578;0.000;0.000;2023-03-01T07:53:12;5.70;;;4.73;;
48777;SDS011;34578;0.000;0.000;2023-03-01T07:58:12;4.70;;;4.20;;
48777;SDS011;34578;0.000;0.000;2023-03-01T08:03:13;5.93;;;4.30;;
48777;SDS011;34578;0.000;0.000;2023-03-01T08:08:13;6.00;;;4.33;;
48777;SDS011;34578;0.000;0.000;2023-03-01T08:13:13;4.90;;;3.83;;
48777;SDS011;34578;0.000;0.000;2023-03-01T08:18:16;4.75;;;4.18;;
48777;SDS011;34578;0.000;0.000;2023-03-01T08:23:18;5.38;;;4.40;;
48777;SDS011;34578;0.000;0.000;2023-03-01T08:28:18;7.13;;;4.47;;
48777;SDS011;34578;0.000;0.000;2023-03-01T08:33:19;5.60;;;4.50;;
48777;SDS011;34578;0.000;0.000;2023-03-01T08:38:19;4.23;;;3.83;;
48777;SDS011;34578;0.000;0.000;2023-03-01T08:43:19;4.10;;;3.70;;
48777;SDS011;34578;0.000;0.000;2023-03-01T08:48:20;5.67;;;4.43;;
48777;SDS011;34578;0.000;0.000;2023-03-01T08:53:20;4.10;;;3.70;;
48777;SDS011;34578;0.000;0.000;2023-03-01T08:58:20;5.33;;;4.83;;
48777;SDS011;34578;0.000;0.000;2023-03-01T09:03:21;4.90;;;4.37;;
48777;SDS011;34578;0.000;0.000;2023-03-01T09:08:23;4.75;;;4.25;;
48777;SDS011;34578;0.000;0.000;2023-03-01T09:13:24;6.03;;;4.43;;
48777;SDS011;34578;0.000;0.000;2023-03-01T09:18:24;4.53;;;4.07;;
48777;SDS011;34578;0.000;0.000;2023-03-01T09:23:25;5.17;;;4.13;;
48777;SDS011;34578;0.000;0.000;2023-03-01T09:28:25;5.63;;;4.03;;
48777;SDS011;34578;0.000;0.000;2023-03-01T09:33:27;4.80;;;4.07;;
48777;SDS011;34578;0.000;0.000;2023-03-01T09:38:28;5.40;;;4.60;;
48777;SDS011;34578;0.000;0.000;2023-03-01T09:43:33;4.30;;;3.85;;
48777;SDS011;34578;0.000;0.000;2023-03-01T09:48:57;4.63;;;3.95;;
48777;SDS011;34578;0.000;0.000;2023-03-01T09:54:04;4.65;;;4.05;;
48777;SDS011;34578;0.000;0.000;2023-03-01T09:59:14;4.07;;;3.33;;
48777;SDS011;34578;0.000;0.000;2023-03-01T10:09:38;4.40;;;3.70;;
48777;SDS011;34578;0.000;0.000;2023-03-01T10:19:51;5.22;;;4.18;;
48777;SDS011;34578;0.000;0.000;2023-03-01T10:24:51;4.93;;;3.97;;
48777;SDS011;34578;0.000;0.000;2023-03-01T10:29:56;4.47;;;4.00;;
48777;SDS011;34578;0.000;0.000;2023-03-01T10:40:36;5.13;;;4.38;;
48777;SDS011;34578;0.000;0.000;2023-03-01T10:45:50;5.03;;;4.50;;
48777;SDS011;34578;0.000;0.000;2023-03-01T10:50:57;4.68;;;4.00;;
48777;SDS011;34578;0.000;0.000;2023-03-01T10:56:07;4.45;;;3.92;;
48777;SDS011;34578;0.000;0.000;2023-03-01T11:06:21;5.13;;;4.20;;
48777;SDS011;34578;0.000;0.000;2023-03-01T11:21:28;4.13;;;3.33;;
48777;SDS011;34578;0.000;0.000;2023-03-01T11:26:34;7.05;;;3.13;;
48777;SDS011;34578;0.000;0.000;2023-03-01T11:31:38;5.47;;;4.00;;
48777;SDS011;34578;0.000;0.000;2023-03-01T11:36:41;4.28;;;3.88;;
48777;SDS011;34578;0.000;0.000;2023-03-01T11:41:48;4.72;;;3.78;;
48777;SDS011;34578;0.000;0.000;2023-03-01T12:41:03;7.65;;;4.60;;
48777;SDS011;34578;0.000;0.000;2023-03-01T12:52:03;27.48;;;12.85;;
48777;SDS011;34578;0.000;0.000;2023-03-01T12:57:33;33.83;;;19.13;;
48777;SDS011;34578;0.000;0.000;2023-03-01T13:02:48;32.85;;;20.65;;
48777;SDS011;34578;0.000;0.000;2023-03-01T13:07:58;46.95;;;26.73;;
48777;SDS011;34578;0.000;0.000;2023-03-01T13:13:14;18.00;;;11.30;;
48777;SDS011;34578;0.000;0.000;2023-03-01T13:23:26;12.85;;;9.27;;
48777;SDS011;34578;0.000;0.000;2023-03-01T13:33:40;41.90;;;17.47;;
48777;SDS011;34578;0.000;0.000;2023-03-01T13:38:48;14.60;;;8.80;;
48777;SDS011;34578;0.000;0.000;2023-03-01T13:43:55;13.82;;;9.25;;
48777;SDS011;34578;0.000;0.000;2023-03-01T13:48:56;16.02;;;9.95;;
48777;SDS011;34578;0.000;0.000;2023-03-01T13:53:57;13.02;;;9.48;;
48777;SDS011;34578;0.000;0.000;2023-03-01T13:59:01;14.40;;;9.93;;
48777;SDS011;34578;0.000;0.000;2023-03-01T14:04:18;14.65;;;9.02;;
48777;SDS011;34578;0.000;0.000;2023-03-01T14:14:36;31.30;;;18.65;;
48777;SDS011;34578;0.000;0.000;2023-03-01T14:19:42;35.88;;;18.80;;
48777;SDS011;34578;0.000;0.000;2023-03-01T14:25:05;15.15;;;10.43;;
48777;SDS011;34578;0.000;0.000;2023-03-01T14:30:24;15.45;;;9.60;;
48777;SDS011;34578;0.000;0.000;2023-03-01T14:35:28;28.92;;;10.98;;
48777;SDS011;34578;0.000;0.000;2023-03-01T14:40:32;10.32;;;7.13;;
48777;SDS011;34578;0.000;0.000;2023-03-01T14:45:34;9.38;;;7.40;;
48777;SDS011;34578;0.000;0.000;2023-03-01T14:50:35;8.27;;;6.70;;
48777;SDS011;34578;0.000;0.000;2023-03-01T14:55:43;14.63;;;9.60;;
48777;SDS011;34578;0.000;0.000;2023-03-01T15:00:56;12.77;;;8.57;;
48777;SDS011;34578;0.000;0.000;2023-03-01T15:06:02;11.93;;;7.85;;
48777;SDS011;34578;0.000;0.000;2023-03-01T15:11:15;11.88;;;8.32;;
48777;SDS011;34578;0.000;0.000;2023-03-01T15:16:31;16.95;;;10.10;;
48777;SDS011;34578;0.000;0.000;2023-03-01T15:21:34;10.77;;;8.05;;
48777;SDS011;34578;0.000;0.000;2023-03-01T15:26:40;13.48;;;8.85;;
48777;SDS011;34578;0.000;0.000;2023-03-01T15:31:52;15.93;;;9.10;;
48777;SDS011;34578;0.000;0.000;2023-03-01T15:36:58;30.67;;;17.10;;
48777;SDS011;34578;0.000;0.000;2023-03-01T15:42:00;30.98;;;17.27;;
48777;SDS011;34578;0.000;0.000;2023-03-01T15:47:01;22.77;;;13.50;;
48777;SDS011;34578;0.000;0.000;2023-03-01T15:52:06;24.88;;;16.15;;
48777;SDS011;34578;0.000;0.000;2023-03-01T16:02:14;17.85;;;11.10;;
48777;SDS011;34578;0.000;0.000;2023-03-01T16:07:15;21.88;;;12.98;;
48777;SDS011;34578;0.000;0.000;2023-03-01T16:12:16;20.30;;;12.88;;
48777;SDS011;34578;0.000;0.000;2023-03-01T16:17:17;21.45;;;13.27;;
48777;SDS011;34578;0.000;0.000;2023-03-01T16:22:17;26.90;;;15.07;;
48777;SDS011;34578;0.000;0.000;2023-03-01T16:27:17;23.30;;;14.13;;
48777;SDS011;34578;0.000;0.000;2023-03-01T16:32:20;21.67;;;14.10;;
48777;SDS011;34578;0.000;0.000;2023-03-01T16:37:20;28.97;;;15.13;;
48777;SDS011;34578;0.000;0.000;2023-03-01T16:42:21;36.30;;;14.05;;
48777;SDS011;34578;0.000;0.000;2023-03-01T16:47:22;23.90;;;13.47;;
48777;SDS011;34578;0.000;0.000;2023-03-01T16:52:22;26.48;;;11.13;;
48777;SDS011;34578;0.000;0.000;2023-03-01T16:57:23;23.08;;;11.80;;
48777;SDS011;34578;0.000;0.000;2023-03-01T17:02:25;26.35;;;13.32;;
48777;SDS011;34578;0.000;0.000;2023-03-01T17:07:26;23.77;;;12.10;;
48777;SDS011;34578;0.000;0.000;2023-03-01T17:12:27;20.60;;;12.15;;
48777;SDS011;34578;0.000;0.000;2023-03-01T17:17:28;20.88;;;12.27;;
48777;SDS011;34578;0.000;0.000;2023-03-01T17:22:28;19.43;;;12.23;;
48777;SDS011;34578;0.000;0.000;2023-03-01T17:27:28;22.87;;;12.17;;
48777;SDS011;34578;0.000;0.000;2023-03-01T17:32:29;18.08;;;11.57;;
48777;SDS011;34578;0.000;0.000;2023-03-01T17:37:29;20.90;;;11.67;;
48777;SDS011;34578;0.000;0.000;2023-03-01T17:42:29;16.37;;;11.43;;
48777;SDS011;34578;0.000;0.000;2023-03-01T17:47:30;18.37;;;10.70;;
48777;SDS011;34578;0.000;0.000;2023-03-01T17:52:30;16.63;;;10.10;;
48777;SDS011;34578;0.000;0.000;2023-03-01T17:57:30;14.50;;;9.97;;
48777;SDS011;34578;0.000;0.000;2023-03-01T18:02:31;13.57;;;9.33;;
48777;SDS011;34578;0.000;0.000;2023-03-01T18:07:31;14.43;;;9.33;;
48777;SDS011;34578;0.000;0.000;2023-03-01T18:12:31;16.27;;;10.27;;
48777;SDS011;34578;0.000;0.000;2023-03-01T18:17:32;14.77;;;9.80;;
48777;SDS011;34578;0.000;0.000;2023-03-01T18:22:34;17.15;;;9.55;;
48777;SDS011;34578;0.000;0.000;2023-03-01T18:27:35;20.47;;;9.90;;
48777;SDS011;34578;0.000;0.000;2023-03-01T18:32:36;26.40;;;9.70;;
48777;SDS011;34578;0.000;0.000;2023-03-01T18:37:38;15.25;;;10.13;;
48777;SDS011;34578;0.000;0.000;2023-03-01T18:42:38;18.07;;;9.60;;
48777;SDS011;34578;0.000;0.000;2023-03-01T18:47:39;21.33;;;10.80;;
48777;SDS011;34578;0.000;0.000;2023-03-01T18:52:40;14.02;;;9.98;;
48777;SDS011;34578;0.000;0.000;2023-03-01T18:57:40;17.23;;;9.17;;
48777;SDS011;34578;0.000;0.000;2023-03-01T19:02:40;18.07;;;9.40;;
48777;SDS011;34578;0.000;0.000;2023-03-01T19:07:41;14.57;;;8.53;;
48777;SDS011;34578;0.000;0.000;2023-03-01T19:12:41;15.63;;;9.67;;
48777;SDS011;34578;0.000;0.000;2023-03-01T19:17:42;16.90;;;8.87;;
48777;SDS011;34578;0.000;0.000;2023-03-01T19:22:43;13.55;;;8.93;;
48777;SDS011;34578;0.000;0.000;2023-03-01T19:27:43;15.80;;;9.93;;
48777;SDS011;34578;0.000;0.000;2023-03-01T19:32:43;17.37;;;9.90;;
48777;SDS011;34578;0.000;0.000;2023-03-01T19:37:44;13.57;;;8.97;;
48777;SDS011;34578;0.000;0.000;2023-03-01T19:42:44;17.80;;;9.38;;
48777;SDS011;34578;0.000;0.000;2023-03-01T19:47:45;18.57;;;9.80;;
48777;SDS011;34578;0.000;0.000;2023-03-01T19:52:47;12.40;;;8.73;;
48777;SDS011;34578;0.000;0.000;2023-03-01T19:57:47;16.53;;;8.47;;
48777;SDS011;34578;0.000;0.000;2023-03-01T20:02:48;11.90;;;8.13;;
48777;SDS011;34578;0.000;0.000;2023-03-01T20:07:48;13.30;;;8.00;;
48777;SDS011;34578;0.000;0.000;2023-03-01T20:12:50;11.10;;;8.00;;
48777;SDS011;34578;0.000;0.000;2023-03-01T20:17:50;13.63;;;8.27;;
48777;SDS011;34578;0.000;0.000;2023-03-01T20:22:50;10.03;;;7.57;;
48777;SDS011;34578;0.000;0.000;2023-03-01T20:27:51;13.50;;;8.57;;
48777;SDS011;34578;0.000;0.000;2023-03-01T20:32:51;11.97;;;7.00;;
48777;SDS011;34578;0.000;0.000;2023-03-01T20:37:52;11.25;;;7.65;;
48777;SDS011;34578;0.000;0.000;2023-03-01T20:42:56;11.87;;;8.27;;
48777;SDS011;34578;0.000;0.000;2023-03-01T20:47:57;11.38;;;8.38;;
48777;SDS011;34578;0.000;0.000;2023-03-01T20:52:57;12.10;;;7.10;;
48777;SDS011;34578;0.000;0.000;2023-03-01T20:57:58;11.30;;;7.57;;
48777;SDS011;34578;0.000;0.000;2023-03-01T21:02:58;13.17;;;8.27;;
48777;SDS011;34578;0.000;0.000;2023-03-01T21:07:58;11.30;;;7.03;;
48777;SDS011;34578;0.000;0.000;2023-03-01T21:13:01;12.23;;;7.60;;
48777;SDS011;34578;0.000;0.000;2023-03-01T21:18:02;10.70;;;7.40;;
48777;SDS011;34578;0.000;0.000;2023-03-01T21:23:02;11.17;;;6.77;;
48777;SDS011;34578;0.000;0.000;2023-03-01T21:28:02;10.07;;;6.70;;
48777;SDS011;34578;0.000;0.000;2023-03-01T21:33:03;10.35;;;6.82;;
48777;SDS011;34578;0.000;0.000;2023-03-01T21:38:03;8.83;;;6.47;;
48777;SDS011;34578;0.000;0.000;2023-03-01T21:43:04;8.77;;;6.43;;
48777;SDS011;34578;0.000;0.000;2023-03-01T21:48:04;9.80;;;7.30;;
48777;SDS011;34578;0.000;0.000;2023-03-01T21:53:04;8.07;;;6.00;;
48777;SDS011;34578;0.000;0.000;2023-03-01T21:58:05;8.70;;;6.63;;
48777;SDS011;34578;0.000;0.000;2023-03-01T22:03:05;10.80;;;7.80;;
48777;SDS011;34578;0.000;0.000;2023-03-01T22:08:06;8.38;;;5.72;;
48777;SDS011;34578;0.000;0.000;2023-03-01T22:13:07;10.60;;;6.20;;
48777;SDS011;34578;0.000;0.000;2023-03-01T22:18:08;11.50;;;7.37;;
48777;SDS011;34578;0.000;0.000;2023-03-01T22:23:10;7.82;;;5.75;;
48777;SDS011;34578;0.000;0.000;2023-03-01T22:28:10;9.03;;;5.73;;
48777;SDS011;34578;0.000;0.000;2023-03-01T22:33:10;9.47;;;6.70;;
48777;SDS011;34578;0.000;0.000;2023-03-01T22:38:11;10.17;;;7.20;;
48777;SDS011;34578;0.000;0.000;2023-03-01T22:43:11;8.40;;;5.93;;
48777;SDS011;34578;0.000;0.000;2023-03-01T22:48:12;8.40;;;6.03;;
48777;SDS011;34578;0.000;0.000;2023-03-01T22:53:12;8.43;;;5.90;;
48777;SDS011;34578;0.000;0.000;2023-03-01T22:58:13;7.20;;;5.38;;
48777;SDS011;34578;0.000;0.000;2023-03-01T23:03:13;9.23;;;6.17;;
48777;SDS011;34578;0.000;0.000;2023-03-01T23:08:16;10.30;;;6.32;;
48777;SDS011;34578;0.000;0.000;2023-03-01T23:13:16;8.87;;;5.90;;
48777;SDS011;34578;0.000;0.000;2023-03-01T23:18:17;8.03;;;5.80;;
48777;SDS011;34578;0.000;0.000;2023-03-01T23:23:17;7.20;;;5.30;;
48777;SDS011;34578;0.000;0.000;2023-03-01T23:28:17;9.00;;;6.17;;
48777;SDS011;34578;0.000;0.000;2023-03-01T23:33:18;7.20;;;5.33;;
48777;SDS011;34578;0.000;0.000;2023-03-01T23:38:18;7.87;;;5.53;;
48777;SDS011;34578;0.000;0.000;2023-03-01T23:43:19;5.40;;;4.72;;
48777;SDS011;34578;0.000;0.000;2023-03-01T23:48:19;9.90;;;5.77;;
48777;SDS011;34578;0.000;0.000;2023-03-01T23:53:20;7.87;;;5.30;;
48777;SDS011;34578;0.000;0.000;2023-03-01T23:58:21;6.50;;;5.23;;
